createdAt,value
2018-08-23T00:00:47.524Z,12.37
2018-08-23T00:03:22.133Z,11.13
2018-08-23T00:05:54.888Z,10.60
2018-08-23T00:08:24.755Z,11.27
2018-08-23T00:10:55.169Z,11.00
2018-08-23T00:13:35.493Z,12.33
2018-08-23T00:16:05.643Z,11.47
2018-08-23T00:18:35.678Z,12.17
2018-08-23T00:21:06.943Z,10.90
2018-08-23T00:23:36.290Z,11.20
2018-08-23T00:26:05.755Z,11.60
2018-08-23T00:28:36.457Z,11.30
2018-08-23T00:31:05.939Z,11.43
2018-08-23T00:33:35.345Z,11.57
2018-08-23T00:36:04.799Z,11.83
2018-08-23T00:38:34.152Z,11.43
2018-08-23T00:41:04.379Z,10.33
2018-08-23T00:43:33.783Z,12.00
2018-08-23T00:46:07.577Z,12.27
2018-08-23T00:48:37.051Z,11.80
2018-08-23T00:51:07.566Z,10.60
2018-08-23T00:53:37.770Z,10.90
2018-08-23T00:56:19.235Z,12.03
2018-08-23T00:58:53.989Z,10.50
2018-08-23T01:01:23.389Z,12.10
2018-08-23T01:03:53.680Z,10.17
2018-08-23T01:06:24.401Z,11.37
2018-08-23T01:08:53.947Z,11.70
2018-08-23T01:11:23.330Z,11.60
2018-08-23T01:13:52.873Z,11.70
2018-08-23T01:16:22.318Z,12.20
2018-08-23T01:18:51.969Z,10.73
2018-08-23T01:21:21.450Z,11.90
2018-08-23T01:23:50.966Z,11.73
2018-08-23T01:26:20.987Z,11.20
2018-08-23T01:28:50.722Z,12.00
2018-08-23T01:31:29.169Z,11.07
2018-08-23T01:34:00.134Z,12.30
2018-08-23T01:36:36.037Z,11.93
2018-08-23T01:39:11.760Z,11.77
2018-08-23T01:41:41.813Z,12.83
2018-08-23T01:44:11.090Z,10.63
2018-08-23T01:46:45.546Z,12.03
2018-08-23T01:49:15.699Z,11.23
2018-08-23T01:51:45.107Z,12.20
2018-08-23T01:54:14.752Z,12.80
2018-08-23T01:56:44.807Z,12.43
2018-08-23T01:59:14.988Z,12.03
2018-08-23T02:01:44.512Z,12.20
2018-08-23T02:04:13.940Z,13.47
2018-08-23T02:06:43.625Z,12.67
2018-08-23T02:09:13.535Z,12.87
2018-08-23T02:11:42.956Z,12.90
2018-08-23T02:14:12.523Z,14.20
2018-08-23T02:16:51.892Z,14.63
2018-08-23T02:19:22.141Z,12.20
2018-08-23T02:21:51.515Z,12.63
2018-08-23T02:24:24.886Z,12.83
2018-08-23T02:26:54.325Z,11.70
2018-08-23T02:29:34.551Z,12.80
2018-08-23T02:32:04.856Z,13.67
2018-08-23T02:34:40.847Z,13.30
2018-08-23T02:37:12.483Z,14.13
2018-08-23T02:39:42.388Z,13.50
2018-08-23T02:42:15.079Z,13.23
2018-08-23T02:44:45.586Z,12.10
2018-08-23T02:47:15.733Z,13.40
2018-08-23T02:49:45.226Z,12.47
2018-08-23T02:52:15.252Z,12.27
2018-08-23T02:54:44.614Z,12.47
2018-08-23T02:57:13.918Z,13.23
2018-08-23T02:59:43.464Z,11.77
2018-08-23T03:02:13.941Z,12.03
2018-08-23T03:04:43.243Z,12.10
2018-08-23T03:07:12.626Z,12.20
2018-08-23T03:09:45.661Z,13.30
2018-08-23T03:12:19.568Z,11.93
2018-08-23T03:14:49.809Z,13.27
2018-08-23T03:17:23.953Z,11.50
2018-08-23T03:20:01.565Z,13.07
2018-08-23T03:22:32.488Z,14.37
2018-08-23T03:25:03.879Z,14.13
2018-08-23T03:27:33.397Z,14.90
2018-08-23T03:30:03.769Z,12.90
2018-08-23T03:32:33.309Z,14.30
2018-08-23T03:35:03.132Z,13.23
2018-08-23T03:37:33.039Z,12.90
2018-08-23T03:40:03.686Z,12.70
2018-08-23T03:42:33.580Z,11.10
2018-08-23T03:45:03.097Z,12.03
2018-08-23T03:47:39.411Z,12.50
2018-08-23T03:50:10.223Z,13.13
2018-08-23T03:52:40.848Z,12.60
2018-08-23T03:55:11.852Z,12.93
2018-08-23T03:57:46.638Z,12.97
2018-08-23T04:00:15.829Z,13.50
2018-08-23T04:02:45.421Z,12.97
2018-08-23T04:05:19.961Z,13.50
2018-08-23T04:07:49.481Z,12.53
2018-08-23T04:10:19.819Z,13.30
2018-08-23T04:12:49.406Z,14.80
2018-08-23T04:15:31.678Z,11.50
2018-08-23T04:18:06.231Z,11.90
2018-08-23T04:20:36.040Z,12.73
2018-08-23T04:23:05.715Z,12.47
2018-08-23T04:25:36.032Z,12.00
2018-08-23T04:28:05.546Z,12.67
2018-08-23T04:30:34.978Z,14.30
2018-08-23T04:33:04.882Z,13.47
2018-08-23T04:35:34.351Z,13.70
2018-08-23T04:38:03.949Z,12.80
2018-08-23T04:40:33.260Z,14.23
2018-08-23T04:43:02.649Z,12.93
2018-08-23T04:45:35.243Z,13.03
2018-08-23T04:48:06.938Z,13.33
2018-08-23T04:50:37.177Z,14.10
2018-08-23T04:53:07.438Z,15.50
2018-08-23T04:55:36.895Z,14.20
2018-08-23T04:58:07.265Z,13.60
2018-08-23T05:00:37.022Z,14.60
2018-08-23T05:03:06.682Z,14.60
2018-08-23T05:05:36.049Z,13.43
2018-08-23T05:08:05.439Z,13.30
2018-08-23T05:10:36.318Z,12.80
2018-08-23T05:13:05.816Z,12.70
2018-08-23T05:15:35.253Z,12.80
2018-08-23T05:18:04.834Z,12.30
2018-08-23T05:20:34.213Z,12.80
2018-08-23T05:23:05.606Z,13.40
2018-08-23T05:25:34.884Z,11.97
2018-08-23T05:28:14.495Z,13.23
2018-08-23T05:30:44.997Z,14.50
2018-08-23T05:33:19.684Z,12.47
2018-08-23T05:35:49.121Z,11.50
2018-08-23T05:38:19.474Z,13.80
2018-08-23T05:41:00.635Z,12.67
2018-08-23T05:43:30.098Z,14.10
2018-08-23T05:45:59.848Z,13.07
2018-08-23T05:48:30.178Z,14.07
2018-08-23T05:51:00.314Z,12.77
2018-08-23T05:53:29.887Z,13.30
2018-08-23T05:56:00.522Z,14.83
2018-08-23T05:58:32.234Z,14.70
2018-08-23T06:01:02.062Z,14.73
2018-08-23T06:03:31.276Z,15.30
2018-08-23T06:06:00.600Z,16.20
2018-08-23T06:08:30.218Z,14.30
2018-08-23T06:11:06.101Z,13.40
2018-08-23T06:13:35.649Z,14.67
2018-08-23T06:16:06.084Z,14.97
2018-08-23T06:18:35.449Z,14.83
2018-08-23T06:21:05.083Z,14.60
2018-08-23T06:24:06.335Z,15.70
2018-08-23T06:26:46.266Z,14.17
2018-08-23T06:29:20.240Z,12.83
2018-08-23T06:32:12.028Z,14.13
2018-08-23T06:34:47.024Z,16.63
2018-08-23T06:37:17.753Z,15.90
2018-08-23T06:39:47.146Z,14.67
2018-08-23T06:42:16.549Z,17.10
2018-08-23T06:44:53.771Z,16.13
2018-08-23T06:47:26.237Z,16.50
2018-08-23T06:49:56.773Z,17.83
2018-08-23T06:52:50.718Z,16.93
2018-08-23T06:55:26.971Z,15.17
2018-08-23T06:58:02.206Z,15.97
2018-08-23T07:00:32.004Z,15.93
2018-08-23T07:03:01.781Z,14.80
2018-08-23T07:05:31.635Z,14.60
2018-08-23T07:08:01.906Z,13.53
2018-08-23T07:10:31.388Z,14.77
2018-08-23T07:13:01.723Z,15.23
2018-08-23T07:15:31.232Z,15.10
2018-08-23T07:18:07.305Z,14.57
2018-08-23T07:20:37.666Z,12.40
2018-08-23T07:23:17.495Z,13.50
2018-08-23T07:25:47.144Z,13.40
2018-08-23T07:28:16.678Z,14.13
2018-08-23T07:30:47.240Z,12.87
2018-08-23T07:33:16.931Z,13.03
2018-08-23T07:35:46.453Z,13.53
2018-08-23T07:38:15.932Z,13.30
2018-08-23T07:40:46.364Z,12.10
2018-08-23T07:43:16.050Z,13.53
2018-08-23T07:45:45.445Z,12.03
2018-08-23T07:48:14.962Z,12.23
2018-08-23T07:50:44.270Z,11.53
2018-08-23T07:53:14.002Z,13.30
2018-08-23T07:55:43.708Z,12.23
2018-08-23T07:58:13.582Z,12.57
2018-08-23T08:00:44.631Z,13.40
2018-08-23T08:03:15.111Z,14.30
2018-08-23T08:05:45.791Z,14.67
2018-08-23T08:08:15.463Z,12.97
2018-08-23T08:10:46.029Z,15.63
2018-08-23T08:13:15.338Z,13.20
2018-08-23T08:15:44.798Z,13.03
2018-08-23T08:18:19.681Z,13.10
2018-08-23T08:20:55.030Z,13.30
2018-08-23T08:23:24.776Z,12.30
2018-08-23T08:25:54.186Z,13.93
2018-08-23T08:28:24.729Z,11.90
2018-08-23T08:30:59.849Z,12.47
2018-08-23T08:33:35.049Z,13.57
2018-08-23T08:36:05.186Z,11.13
2018-08-23T08:38:35.234Z,12.60
2018-08-23T08:41:04.981Z,11.97
2018-08-23T08:43:34.642Z,12.33
2018-08-23T08:46:04.093Z,12.40
2018-08-23T08:48:36.405Z,12.70
2018-08-23T08:51:22.578Z,12.40
2018-08-23T08:53:52.995Z,12.60
2018-08-23T08:56:27.119Z,13.20
2018-08-23T08:58:56.611Z,11.17
2018-08-23T09:01:27.110Z,12.80
2018-08-23T09:03:57.092Z,11.63
2018-08-23T09:06:31.832Z,12.30
2018-08-23T09:09:05.995Z,10.80
2018-08-23T09:11:35.787Z,10.73
2018-08-23T09:14:05.852Z,12.37
2018-08-23T09:16:35.283Z,11.83
2018-08-23T09:19:06.285Z,11.83
2018-08-23T09:21:35.697Z,11.10
2018-08-23T09:24:20.051Z,10.83
2018-08-23T09:26:49.435Z,12.00
2018-08-23T09:29:30.163Z,11.50
2018-08-23T09:32:11.986Z,11.10
2018-08-23T09:34:42.183Z,10.40
2018-08-23T09:37:12.737Z,10.80
2018-08-23T09:39:42.247Z,11.27
2018-08-23T09:42:11.899Z,10.80
2018-08-23T09:44:54.136Z,11.00
2018-08-23T09:47:24.684Z,10.00
2018-08-23T09:49:54.190Z,10.10
2018-08-23T09:52:38.896Z,10.50
2018-08-23T09:55:10.341Z,11.23
2018-08-23T09:57:39.770Z,10.43
2018-08-23T10:00:11.466Z,10.60
2018-08-23T10:02:45.974Z,9.87
2018-08-23T10:05:20.317Z,9.33
2018-08-23T10:07:54.957Z,11.13
2018-08-23T10:10:29.601Z,10.10
2018-08-23T10:13:05.211Z,9.67
2018-08-23T10:15:40.505Z,9.87
2018-08-23T10:18:15.484Z,10.10
2018-08-23T10:20:51.124Z,9.20
2018-08-23T10:23:23.102Z,9.63
2018-08-23T10:25:54.189Z,9.60
2018-08-23T10:28:25.033Z,9.43
2018-08-23T10:30:54.878Z,10.90
2018-08-23T10:33:24.150Z,9.57
2018-08-23T10:35:54.778Z,9.47
2018-08-23T10:38:26.782Z,10.33
2018-08-23T10:41:02.160Z,10.37
2018-08-23T10:43:36.441Z,10.90
2018-08-23T10:46:06.922Z,9.20
2018-08-23T10:48:36.417Z,10.40
2018-08-23T10:51:06.283Z,10.27
2018-08-23T10:53:35.749Z,9.90
2018-08-23T10:56:05.573Z,9.40
2018-08-23T10:58:36.007Z,9.60
2018-08-23T11:01:06.002Z,8.80
2018-08-23T11:03:35.550Z,9.23
2018-08-23T11:06:05.191Z,9.13
2018-08-23T11:08:36.655Z,10.00
2018-08-23T11:11:11.456Z,10.03
2018-08-23T11:13:48.062Z,11.60
2018-08-23T11:16:22.792Z,9.33
2018-08-23T11:18:57.468Z,10.67
2018-08-23T11:21:27.049Z,9.17
2018-08-23T11:23:56.552Z,10.00
2018-08-23T11:26:27.357Z,9.77
2018-08-23T11:28:57.570Z,10.73
2018-08-23T11:31:29.546Z,8.80
2018-08-23T11:33:59.927Z,9.70
2018-08-23T11:36:29.324Z,11.03
2018-08-23T11:38:58.653Z,11.20
2018-08-23T11:41:28.221Z,10.20
2018-08-23T11:43:58.292Z,9.80
2018-08-23T11:46:27.893Z,10.20
2018-08-23T11:48:57.369Z,10.63
2018-08-23T11:51:27.113Z,9.23
2018-08-23T11:53:57.362Z,9.80
2018-08-23T11:56:26.882Z,9.63
2018-08-23T11:58:56.412Z,8.67
2018-08-23T12:01:26.090Z,9.60
2018-08-23T12:03:55.524Z,9.87
2018-08-23T12:06:24.786Z,9.20
2018-08-23T12:08:54.216Z,9.50
2018-08-23T12:11:23.543Z,8.63
2018-08-23T12:13:53.554Z,9.00
2018-08-23T12:16:22.847Z,8.70
2018-08-23T12:18:52.134Z,9.47
2018-08-23T12:21:21.750Z,10.20
2018-08-23T12:23:51.568Z,10.60
2018-08-23T12:26:21.829Z,10.50
2018-08-23T12:29:09.411Z,10.27
2018-08-23T12:31:39.411Z,10.10
2018-08-23T12:34:10.404Z,11.60
2018-08-23T12:36:45.146Z,9.93
2018-08-23T12:41:23.517Z,10.87
2018-08-23T12:43:53.795Z,10.47
2018-08-23T12:46:23.440Z,10.50
2018-08-23T12:48:57.656Z,10.63
2018-08-23T12:51:27.927Z,10.87
2018-08-23T12:53:57.275Z,10.17
2018-08-23T12:56:26.736Z,11.00
2018-08-23T12:58:56.178Z,10.90
2018-08-23T13:01:25.574Z,10.00
2018-08-23T13:03:55.983Z,9.43
2018-08-23T13:06:25.395Z,9.37
2018-08-23T13:08:55.835Z,10.03
2018-08-23T13:11:26.278Z,9.40
2018-08-23T13:13:55.806Z,9.90
2018-08-23T13:16:25.230Z,9.80
2018-08-23T13:18:55.341Z,10.23
2018-08-23T13:21:25.411Z,10.23
2018-08-23T13:23:54.908Z,10.20
2018-08-23T13:26:29.479Z,11.60
2018-08-23T13:28:58.884Z,9.17
2018-08-23T13:31:28.245Z,9.03
2018-08-23T13:33:57.690Z,9.10
2018-08-23T13:36:27.134Z,11.20
2018-08-23T13:38:56.623Z,8.53
2018-08-23T13:41:25.736Z,9.27
2018-08-23T13:43:54.886Z,8.67
2018-08-23T13:46:24.264Z,8.13
2018-08-23T13:48:53.765Z,7.20
2018-08-23T13:51:23.271Z,8.00
2018-08-23T13:53:52.418Z,7.97
2018-08-23T13:56:22.027Z,8.73
2018-08-23T13:58:51.472Z,8.13
2018-08-23T14:01:26.076Z,9.60
2018-08-23T14:03:56.335Z,10.70
2018-08-23T14:06:25.920Z,9.80
2018-08-23T14:08:55.346Z,8.80
2018-08-23T14:11:24.795Z,9.20
2018-08-23T14:13:54.224Z,9.37
2018-08-23T14:16:24.471Z,10.20
2018-08-23T14:18:54.697Z,10.77
2018-08-23T14:21:24.061Z,8.90
2018-08-23T14:23:53.506Z,9.63
2018-08-23T14:26:23.036Z,10.03
2018-08-23T14:28:52.500Z,9.77
2018-08-23T14:31:22.284Z,9.87
2018-08-23T14:33:51.748Z,9.10
2018-08-23T14:36:21.570Z,8.97
2018-08-23T14:38:50.993Z,10.30
2018-08-23T14:41:20.585Z,9.80
2018-08-23T14:43:50.008Z,9.43
2018-08-23T14:46:25.296Z,9.40
2018-08-23T14:48:54.899Z,9.00
2018-08-23T14:51:24.299Z,9.23
2018-08-23T14:53:53.733Z,9.13
2018-08-23T14:56:29.674Z,9.40
2018-08-23T14:58:59.161Z,8.90
2018-08-23T15:01:28.920Z,9.30
2018-08-23T15:03:59.457Z,8.80
2018-08-23T15:06:29.297Z,8.53
2018-08-23T15:08:58.720Z,8.90
2018-08-23T15:11:28.921Z,8.70
2018-08-23T15:13:59.861Z,8.83
2018-08-23T15:16:30.203Z,8.17
2018-08-23T15:19:01.805Z,8.67
2018-08-23T15:21:31.586Z,9.20
2018-08-23T15:24:02.727Z,9.17
2018-08-23T15:26:32.873Z,9.17
2018-08-23T15:29:02.428Z,8.97
2018-08-23T15:31:33.010Z,10.10
2018-08-23T15:34:02.529Z,9.67
2018-08-23T15:36:32.203Z,10.90
2018-08-23T15:39:01.649Z,9.23
2018-08-23T15:41:31.372Z,9.57
2018-08-23T15:44:03.403Z,9.30
2018-08-23T15:46:38.470Z,10.10
2018-08-23T15:49:08.104Z,9.13
2018-08-23T15:51:38.783Z,9.50
2018-08-23T15:54:09.339Z,10.23
2018-08-23T15:56:39.618Z,7.87
2018-08-23T15:59:09.520Z,9.57
2018-08-23T16:01:38.977Z,10.83
2018-08-23T16:04:09.152Z,10.30
2018-08-23T16:06:38.731Z,10.60
2018-08-23T16:09:09.620Z,10.00
2018-08-23T16:11:39.186Z,11.17
2018-08-23T16:14:09.860Z,10.77
2018-08-23T16:16:50.818Z,9.80
2018-08-23T16:19:25.917Z,9.43
2018-08-23T16:21:56.148Z,9.03
2018-08-23T16:24:25.964Z,10.73
2018-08-23T16:27:00.515Z,10.00
2018-08-23T16:29:30.014Z,9.97
2018-08-23T16:31:59.312Z,11.10
2018-08-23T16:34:29.043Z,10.10
2018-08-23T16:36:58.349Z,11.40
2018-08-23T16:39:28.220Z,9.70
2018-08-23T16:41:57.462Z,11.00
2018-08-23T16:44:26.543Z,10.10
2018-08-23T16:46:56.250Z,10.17
2018-08-23T16:49:25.661Z,10.53
2018-08-23T16:51:54.987Z,10.17
2018-08-23T16:54:24.265Z,10.00
2018-08-23T16:56:53.915Z,10.47
2018-08-23T16:59:23.189Z,11.13
2018-08-23T17:01:52.539Z,10.67
2018-08-23T17:04:26.047Z,9.40
2018-08-23T17:06:55.566Z,10.87
2018-08-23T17:09:24.981Z,10.03
2018-08-23T17:11:54.376Z,11.03
2018-08-23T17:14:24.034Z,10.53
2018-08-23T17:16:58.495Z,9.60
2018-08-23T17:19:29.350Z,10.90
2018-08-23T17:21:58.856Z,10.90
2018-08-23T17:24:29.270Z,11.00
2018-08-23T17:26:58.882Z,10.10
2018-08-23T17:29:28.272Z,10.83
2018-08-23T17:31:57.682Z,10.13
2018-08-23T17:34:27.450Z,10.60
2018-08-23T17:36:57.226Z,10.13
2018-08-23T17:39:26.765Z,10.67
2018-08-23T17:41:56.226Z,10.10
2018-08-23T17:44:25.957Z,9.87
2018-08-23T17:46:57.593Z,12.20
2018-08-23T17:49:27.195Z,11.30
2018-08-23T17:51:57.034Z,11.53
2018-08-23T17:54:27.539Z,11.10
2018-08-23T17:56:57.065Z,11.23
2018-08-23T17:59:26.464Z,11.20
2018-08-23T18:01:57.383Z,10.27
2018-08-23T18:04:26.900Z,10.90
2018-08-23T18:06:56.334Z,10.10
2018-08-23T18:09:26.415Z,11.47
2018-08-23T18:11:56.095Z,10.60
2018-08-23T18:14:25.976Z,11.40
2018-08-23T18:16:59.958Z,11.33
2018-08-23T18:19:29.626Z,10.53
2018-08-23T18:21:59.172Z,11.00
2018-08-23T18:24:28.629Z,10.47
2018-08-23T18:26:58.395Z,10.53
2018-08-23T18:29:28.048Z,10.73
2018-08-23T18:31:58.055Z,10.63
2018-08-23T18:34:26.495Z,11.47
2018-08-23T18:36:55.945Z,11.27
2018-08-23T18:39:25.224Z,11.97
2018-08-23T18:41:54.723Z,11.67
2018-08-23T18:44:24.677Z,11.87
2018-08-23T18:46:55.166Z,10.87
2018-08-23T18:49:24.694Z,10.00
2018-08-23T18:51:54.220Z,10.70
2018-08-23T18:54:24.056Z,10.57
2018-08-23T18:56:53.588Z,10.57
2018-08-23T18:59:22.943Z,11.03
2018-08-23T19:01:52.187Z,11.33
2018-08-23T19:04:21.473Z,10.50
2018-08-23T19:06:51.090Z,11.80
2018-08-23T19:09:20.563Z,10.97
2018-08-23T19:11:50.346Z,12.27
2018-08-23T19:14:20.878Z,12.13
2018-08-23T19:16:55.094Z,11.00
2018-08-23T19:19:25.602Z,10.10
2018-08-23T19:21:55.308Z,11.33
2018-08-23T19:24:25.116Z,11.70
2018-08-23T19:26:54.599Z,13.00
2018-08-23T19:29:25.741Z,13.60
2018-08-23T19:31:57.192Z,13.00
2018-08-23T19:34:27.317Z,12.40
2018-08-23T19:36:56.982Z,11.67
2018-08-23T19:39:26.465Z,12.43
2018-08-23T19:41:56.380Z,12.83
2018-08-23T19:44:25.964Z,10.90
2018-08-23T19:48:03.623Z,10.53
2018-08-23T19:50:33.065Z,12.77
2018-08-23T19:53:02.602Z,12.17
2018-08-23T19:55:32.104Z,9.60
2018-08-23T19:58:01.668Z,9.53
2018-08-23T20:00:31.359Z,9.20
2018-08-23T20:03:00.845Z,10.70
2018-08-23T20:05:33.513Z,9.50
2018-08-23T20:08:03.174Z,8.90
2018-08-23T20:10:33.321Z,10.20
2018-08-23T20:13:02.867Z,8.80
2018-08-23T20:15:32.340Z,8.87
2018-08-23T20:18:02.015Z,8.10
2018-08-23T20:20:31.450Z,7.90
2018-08-23T20:23:01.421Z,8.43
2018-08-23T20:25:30.954Z,8.47
2018-08-23T20:28:00.401Z,7.53
2018-08-23T20:30:30.098Z,7.23
2018-08-23T20:33:00.721Z,8.97
2018-08-23T20:35:31.011Z,7.00
2018-08-23T20:38:00.997Z,7.30
2018-08-23T20:40:30.490Z,7.90
2018-08-23T20:43:00.066Z,8.13
2018-08-23T20:45:29.682Z,9.70
2018-08-23T20:47:59.068Z,10.00
2018-08-23T20:50:28.293Z,10.37
2018-08-23T20:52:57.704Z,9.73
2018-08-23T20:55:27.098Z,10.43
2018-08-23T20:57:56.658Z,9.80
2018-08-23T21:00:26.205Z,10.77
2018-08-23T21:02:55.750Z,9.90
2018-08-23T21:05:25.156Z,9.17
2018-08-23T21:07:54.649Z,9.23
2018-08-23T21:10:23.843Z,8.83
2018-08-23T21:12:53.256Z,7.47
2018-08-23T21:15:23.212Z,8.30
2018-08-23T21:17:52.769Z,7.73
2018-08-23T21:20:22.838Z,8.27
2018-08-23T21:22:52.625Z,9.00
2018-08-23T21:25:22.530Z,8.80
2018-08-23T21:27:52.030Z,9.33
2018-08-23T21:30:21.449Z,11.07
2018-08-23T21:32:50.855Z,9.93
2018-08-23T21:35:19.873Z,10.33
2018-08-23T21:37:49.006Z,10.87
2018-08-23T21:40:18.221Z,10.17
2018-08-23T21:42:47.467Z,10.00
2018-08-23T21:45:16.590Z,11.90
2018-08-23T21:47:46.252Z,10.03
2018-08-23T21:50:16.622Z,10.77
2018-08-23T21:52:45.768Z,10.63
2018-08-23T21:55:14.862Z,11.40
2018-08-23T21:57:44.169Z,10.77
2018-08-23T22:00:13.503Z,12.20
2018-08-23T22:02:42.993Z,11.37
2018-08-23T22:05:12.608Z,10.50
2018-08-23T22:07:42.344Z,11.13
2018-08-23T22:10:11.747Z,10.83
2018-08-23T22:12:41.256Z,10.97
2018-08-23T22:15:10.825Z,10.40
2018-08-23T22:17:40.313Z,10.67
2018-08-23T22:20:09.785Z,10.93
2018-08-23T22:22:39.303Z,12.13
2018-08-23T22:25:08.722Z,11.00
2018-08-23T22:27:38.514Z,10.77
2018-08-23T22:30:07.935Z,11.07
2018-08-23T22:32:37.333Z,11.17
2018-08-23T22:35:06.785Z,10.10
2018-08-23T22:37:36.191Z,9.97
2018-08-23T22:40:05.532Z,10.37
2018-08-23T22:42:34.954Z,10.43
2018-08-23T22:45:04.181Z,11.10
2018-08-23T22:47:33.608Z,10.00
2018-08-23T22:50:03.100Z,10.70
2018-08-23T22:52:32.422Z,10.80
2018-08-23T22:55:01.853Z,10.20
2018-08-23T22:57:31.548Z,11.87
2018-08-23T23:00:00.753Z,10.57
2018-08-23T23:02:35.221Z,10.83
2018-08-23T23:05:04.557Z,9.93
2018-08-23T23:07:34.155Z,9.27
2018-08-23T23:10:04.235Z,10.27
2018-08-23T23:12:33.809Z,9.50
2018-08-23T23:15:11.291Z,11.70
2018-08-23T23:17:40.811Z,10.63
2018-08-23T23:20:10.217Z,9.83
2018-08-23T23:22:40.089Z,10.70
2018-08-23T23:25:09.579Z,10.53
2018-08-23T23:27:38.599Z,10.43
2018-08-23T23:30:08.127Z,9.67
2018-08-23T23:32:37.277Z,10.80
2018-08-23T23:35:06.764Z,10.63
2018-08-23T23:37:36.076Z,9.40
2018-08-23T23:40:05.474Z,8.70
2018-08-23T23:42:34.894Z,8.73
2018-08-23T23:45:04.269Z,10.13
2018-08-23T23:47:33.778Z,9.20
2018-08-23T23:50:03.168Z,9.90
2018-08-23T23:52:32.473Z,10.07
2018-08-23T23:55:01.783Z,9.50
2018-08-23T23:57:31.159Z,10.40
